createdAt,value
2018-09-10T00:00:56.711Z,1023.42
2018-09-10T00:01:56.625Z,1023.47
2018-09-10T00:02:56.565Z,1023.42
2018-09-10T00:03:56.818Z,1023.46
2018-09-10T00:04:56.414Z,1023.46
2018-09-10T00:05:56.470Z,1023.48
2018-09-10T00:06:56.437Z,1023.45
2018-09-10T00:07:56.799Z,1023.48
2018-09-10T00:08:56.447Z,1023.47
2018-09-10T00:09:56.475Z,1023.46
2018-09-10T00:10:56.555Z,1023.47
2018-09-10T00:11:56.451Z,1023.43
2018-09-10T00:12:56.436Z,1023.42
2018-09-10T00:13:56.436Z,1023.4
2018-09-10T00:14:56.499Z,1023.35
2018-09-10T00:15:56.431Z,1023.33
2018-09-10T00:16:56.493Z,1023.31
2018-09-10T00:17:56.501Z,1023.37
2018-09-10T00:18:56.481Z,1023.35
2018-09-10T00:19:56.425Z,1023.39
2018-09-10T00:20:56.418Z,1023.4
2018-09-10T00:21:56.435Z,1023.42
2018-09-10T00:22:56.435Z,1023.39
2018-09-10T00:23:56.428Z,1023.36
2018-09-10T00:24:56.438Z,1023.38
2018-09-10T00:25:56.515Z,1023.38
2018-09-10T00:26:56.443Z,1023.36
2018-09-10T00:27:56.532Z,1023.35
2018-09-10T00:28:56.738Z,1023.4
2018-09-10T00:29:56.450Z,1023.4
2018-09-10T00:30:56.518Z,1023.38
2018-09-10T00:31:56.462Z,1023.38
2018-09-10T00:32:56.493Z,1023.4
2018-09-10T00:33:56.476Z,1023.39
2018-09-10T00:34:57.092Z,1023.39
2018-09-10T00:35:56.545Z,1023.42
2018-09-10T00:36:56.633Z,1023.41
2018-09-10T00:37:56.519Z,1023.38
2018-09-10T00:38:56.526Z,1023.33
2018-09-10T00:39:56.550Z,1023.34
2018-09-10T00:40:56.570Z,1023.35
2018-09-10T00:41:56.646Z,1023.38
2018-09-10T00:42:56.547Z,1023.37
2018-09-10T00:43:56.489Z,1023.38
2018-09-10T00:44:56.530Z,1023.44
2018-09-10T00:45:56.439Z,1023.41
2018-09-10T00:46:56.453Z,1023.43
2018-09-10T00:47:56.521Z,1023.41
2018-09-10T00:48:56.780Z,1023.4
2018-09-10T00:49:56.471Z,1023.38
2018-09-10T00:50:56.448Z,1023.38
2018-09-10T00:51:56.508Z,1023.38
2018-09-10T00:52:56.489Z,1023.4
2018-09-10T00:53:56.513Z,1023.39
2018-09-10T00:54:56.906Z,1023.4
2018-09-10T00:55:56.534Z,1023.4
2018-09-10T00:56:56.487Z,1023.38
2018-09-10T00:57:56.459Z,1023.38
2018-09-10T00:58:56.671Z,1023.43
2018-09-10T00:59:56.663Z,1023.42
2018-09-10T01:00:56.499Z,1023.43
2018-09-10T01:01:56.561Z,1023.44
2018-09-10T01:02:56.466Z,1023.44
2018-09-10T01:03:56.537Z,1023.42
2018-09-10T01:04:56.526Z,1023.45
2018-09-10T01:05:56.480Z,1023.48
2018-09-10T01:06:56.475Z,1023.5
2018-09-10T01:07:56.568Z,1023.49
2018-09-10T01:08:56.469Z,1023.51
2018-09-10T01:09:56.473Z,1023.52
2018-09-10T01:10:56.475Z,1023.52
2018-09-10T01:11:56.461Z,1023.54
2018-09-10T01:12:56.787Z,1023.51
2018-09-10T01:13:56.534Z,1023.5
2018-09-10T01:14:56.850Z,1023.5
2018-09-10T01:15:56.649Z,1023.53
2018-09-10T01:16:56.614Z,1023.45
2018-09-10T01:17:57.175Z,1023.5
2018-09-10T01:18:56.499Z,1023.49
2018-09-10T01:19:56.577Z,1023.49
2018-09-10T01:20:56.481Z,1023.45
2018-09-10T01:21:56.611Z,1023.47
2018-09-10T01:22:56.644Z,1023.49
2018-09-10T01:23:56.502Z,1023.45
2018-09-10T01:24:56.539Z,1023.47
2018-09-10T01:25:56.494Z,1023.48
2018-09-10T01:26:56.829Z,1023.47
2018-09-10T01:27:56.528Z,1023.46
2018-09-10T01:28:56.578Z,1023.46
2018-09-10T01:29:56.483Z,1023.45
2018-09-10T01:30:56.507Z,1023.46
2018-09-10T01:31:56.569Z,1023.45
2018-09-10T01:32:56.484Z,1023.48
2018-09-10T01:33:56.495Z,1023.47
2018-09-10T01:34:56.477Z,1023.51
2018-09-10T01:35:56.528Z,1023.52
2018-09-10T01:36:56.516Z,1023.5
2018-09-10T01:37:56.497Z,1023.53
2018-09-10T01:38:56.475Z,1023.53
2018-09-10T01:39:56.511Z,1023.54
2018-09-10T01:40:56.473Z,1023.59
2018-09-10T01:41:56.496Z,1023.53
2018-09-10T01:42:56.509Z,1023.56
2018-09-10T01:43:56.539Z,1023.53
2018-09-10T01:44:56.574Z,1023.58
2018-09-10T01:45:56.517Z,1023.53
2018-09-10T01:46:56.465Z,1023.54
2018-09-10T01:47:56.489Z,1023.52
2018-09-10T01:48:56.529Z,1023.51
2018-09-10T01:49:56.565Z,1023.49
2018-09-10T01:50:56.559Z,1023.5
2018-09-10T01:51:56.496Z,1023.51
2018-09-10T01:52:56.510Z,1023.51
2018-09-10T01:53:56.513Z,1023.5
2018-09-10T01:54:56.560Z,1023.49
2018-09-10T01:55:56.505Z,1023.48
2018-09-10T01:56:56.494Z,1023.5
2018-09-10T01:57:56.842Z,1023.54
2018-09-10T01:58:56.661Z,1023.57
2018-09-10T01:59:56.502Z,1023.61
2018-09-10T02:00:56.490Z,1023.62
2018-09-10T02:01:56.505Z,1023.63
2018-09-10T02:02:56.493Z,1023.68
2018-09-10T02:03:56.544Z,1023.68
2018-09-10T02:04:56.555Z,1023.67
2018-09-10T02:05:56.713Z,1023.72
2018-09-10T02:06:56.500Z,1023.71
2018-09-10T02:07:56.602Z,1023.74
2018-09-10T02:08:56.509Z,1023.72
2018-09-10T02:09:56.553Z,1023.73
2018-09-10T02:10:56.617Z,1023.71
2018-09-10T02:11:56.521Z,1023.7
2018-09-10T02:12:56.675Z,1023.67
2018-09-10T02:13:56.529Z,1023.72
2018-09-10T02:14:56.857Z,1023.69
2018-09-10T02:15:56.572Z,1023.65
2018-09-10T02:16:56.809Z,1023.68
2018-09-10T02:17:56.505Z,1023.65
2018-09-10T02:18:56.721Z,1023.64
2018-09-10T02:19:56.716Z,1023.62
2018-09-10T02:20:56.601Z,1023.63
2018-09-10T02:21:56.550Z,1023.65
2018-09-10T02:22:56.500Z,1023.63
2018-09-10T02:23:56.512Z,1023.64
2018-09-10T02:24:56.515Z,1023.61
2018-09-10T02:25:56.515Z,1023.56
2018-09-10T02:26:56.661Z,1023.61
2018-09-10T02:27:56.565Z,1023.61
2018-09-10T02:28:56.537Z,1023.56
2018-09-10T02:29:56.956Z,1023.55
2018-09-10T02:30:56.677Z,1023.54
2018-09-10T02:31:56.626Z,1023.53
2018-09-10T02:32:56.662Z,1023.54
2018-09-10T02:33:56.718Z,1023.58
2018-09-10T02:34:56.623Z,1023.58
2018-09-10T02:35:56.999Z,1023.6
2018-09-10T02:36:56.597Z,1023.58
2018-09-10T02:37:56.520Z,1023.6
2018-09-10T02:38:56.674Z,1023.59
2018-09-10T02:39:57.390Z,1023.55
2018-09-10T02:40:56.935Z,1023.53
2018-09-10T02:41:56.541Z,1023.55
2018-09-10T02:42:56.626Z,1023.54
2018-09-10T02:43:56.525Z,1023.59
2018-09-10T02:44:56.926Z,1023.56
2018-09-10T02:45:56.594Z,1023.59
2018-09-10T02:46:56.540Z,1023.57
2018-09-10T02:47:56.863Z,1023.59
2018-09-10T02:48:56.529Z,1023.6
2018-09-10T02:49:56.523Z,1023.6
2018-09-10T02:50:56.749Z,1023.59
2018-09-10T02:51:56.551Z,1023.62
2018-09-10T02:52:56.613Z,1023.57
2018-09-10T02:53:56.571Z,1023.59
2018-09-10T02:54:56.646Z,1023.58
2018-09-10T02:55:56.526Z,1023.56
2018-09-10T02:56:56.651Z,1023.63
2018-09-10T02:57:56.660Z,1023.57
2018-09-10T02:58:56.533Z,1023.62
2018-09-10T02:59:56.518Z,1023.65
2018-09-10T03:00:56.529Z,1023.69
2018-09-10T03:01:56.531Z,1023.66
2018-09-10T03:02:56.548Z,1023.65
2018-09-10T03:03:56.535Z,1023.68
2018-09-10T03:04:56.544Z,1023.68
2018-09-10T03:05:56.527Z,1023.68
2018-09-10T03:06:56.686Z,1023.7
2018-09-10T03:07:56.560Z,1023.71
2018-09-10T03:08:56.528Z,1023.69
2018-09-10T03:09:56.576Z,1023.72
2018-09-10T03:10:56.574Z,1023.71
2018-09-10T03:11:56.597Z,1023.73
2018-09-10T03:12:56.576Z,1023.74
2018-09-10T03:13:56.578Z,1023.76
2018-09-10T03:14:56.560Z,1023.76
2018-09-10T03:15:56.555Z,1023.78
2018-09-10T03:16:57.203Z,1023.81
2018-09-10T03:17:56.712Z,1023.86
2018-09-10T03:18:56.671Z,1023.88
2018-09-10T03:19:56.983Z,1023.89
2018-09-10T03:20:56.654Z,1023.86
2018-09-10T03:21:56.609Z,1023.87
2018-09-10T03:22:56.692Z,1023.88
2018-09-10T03:23:56.881Z,1023.89
2018-09-10T03:24:56.530Z,1023.84
2018-09-10T03:25:57.343Z,1023.83
2018-09-10T03:26:56.689Z,1023.86
2018-09-10T03:27:56.848Z,1023.87
2018-09-10T03:28:56.700Z,1023.88
2018-09-10T03:29:56.557Z,1023.86
2018-09-10T03:30:56.556Z,1023.84
2018-09-10T03:31:57.061Z,1023.85
2018-09-10T03:32:56.636Z,1023.83
2018-09-10T03:33:56.647Z,1023.8
2018-09-10T03:34:56.895Z,1023.8
2018-09-10T03:35:56.758Z,1023.77
2018-09-10T03:36:56.564Z,1023.76
2018-09-10T03:37:56.556Z,1023.76
2018-09-10T03:38:56.604Z,1023.77
2018-09-10T03:39:56.567Z,1023.79
2018-09-10T03:40:56.844Z,1023.75
2018-09-10T03:41:56.596Z,1023.82
2018-09-10T03:42:56.551Z,1023.82
2018-09-10T03:43:56.571Z,1023.81
2018-09-10T03:44:56.602Z,1023.86
2018-09-10T03:45:56.999Z,1023.83
2018-09-10T03:46:56.556Z,1023.83
2018-09-10T03:47:56.588Z,1023.84
2018-09-10T03:48:56.645Z,1023.86
2018-09-10T03:49:56.698Z,1023.82
2018-09-10T03:50:56.553Z,1023.86
2018-09-10T03:51:56.613Z,1023.83
2018-09-10T03:52:56.885Z,1023.86
2018-09-10T03:53:57.221Z,1023.9
2018-09-10T03:54:56.753Z,1023.87
2018-09-10T03:55:56.595Z,1023.85
2018-09-10T03:56:56.558Z,1023.86
2018-09-10T03:57:56.681Z,1023.86
2018-09-10T03:58:56.625Z,1023.85
2018-09-10T03:59:56.561Z,1023.88
2018-09-10T04:00:56.825Z,1023.86
2018-09-10T04:01:56.604Z,1023.88
2018-09-10T04:02:56.624Z,1023.86
2018-09-10T04:03:58.031Z,1023.9
2018-09-10T04:04:56.584Z,1023.9
2018-09-10T04:05:56.997Z,1023.88
2018-09-10T04:06:56.573Z,1023.88
2018-09-10T04:07:56.577Z,1023.89
2018-09-10T04:08:56.699Z,1023.89
2018-09-10T04:09:56.597Z,1023.93
2018-09-10T04:10:56.689Z,1023.93
2018-09-10T04:11:56.582Z,1023.91
2018-09-10T04:12:57.062Z,1023.91
2018-09-10T04:13:56.805Z,1023.93
2018-09-10T04:14:56.608Z,1023.93
2018-09-10T04:15:56.597Z,1023.96
2018-09-10T04:16:56.798Z,1023.94
2018-09-10T04:17:56.704Z,1023.92
2018-09-10T04:18:56.695Z,1023.94
2018-09-10T04:19:56.703Z,1023.91
2018-09-10T04:20:56.575Z,1023.93
2018-09-10T04:21:56.777Z,1023.97
2018-09-10T04:22:56.610Z,1023.95
2018-09-10T04:23:56.642Z,1023.97
2018-09-10T04:24:56.598Z,1023.95
2018-09-10T04:25:56.813Z,1023.96
2018-09-10T04:26:56.631Z,1023.93
2018-09-10T04:27:56.613Z,1023.93
2018-09-10T04:28:56.674Z,1023.98
2018-09-10T04:29:56.591Z,1023.98
2018-09-10T04:30:56.611Z,1023.97
2018-09-10T04:31:56.666Z,1024.01
2018-09-10T04:32:56.671Z,1024.01
2018-09-10T04:33:56.617Z,1023.96
2018-09-10T04:34:56.996Z,1024.01
2018-09-10T04:35:56.834Z,1023.99
2018-09-10T04:36:56.996Z,1023.99
2018-09-10T04:37:56.577Z,1024.01
2018-09-10T04:38:56.583Z,1023.98
2018-09-10T04:39:56.612Z,1024.01
2018-09-10T04:40:56.578Z,1024.03
2018-09-10T04:41:56.627Z,1024.05
2018-09-10T04:42:56.620Z,1024.04
2018-09-10T04:43:56.627Z,1024.05
2018-09-10T04:44:56.604Z,1024.08
2018-09-10T04:45:57.079Z,1024.14
2018-09-10T04:46:56.624Z,1024.12
2018-09-10T04:47:56.975Z,1024.14
2018-09-10T04:48:56.589Z,1024.13
2018-09-10T04:49:56.694Z,1024.15
2018-09-10T04:50:56.675Z,1024.15
2018-09-10T04:51:56.626Z,1024.1
2018-09-10T04:52:56.580Z,1024.07
2018-09-10T04:53:56.727Z,1024.04
2018-09-10T04:54:56.628Z,1024.05
2018-09-10T04:55:56.576Z,1024.03
2018-09-10T04:56:56.635Z,1024.05
2018-09-10T04:57:56.680Z,1024.07
2018-09-10T04:58:56.605Z,1024.07
2018-09-10T04:59:56.643Z,1024.11
2018-09-10T05:00:56.599Z,1024.09
2018-09-10T05:01:56.687Z,1024.08
2018-09-10T05:02:56.585Z,1024.08
2018-09-10T05:03:56.794Z,1024.11
2018-09-10T05:04:56.604Z,1024.1
2018-09-10T05:05:56.606Z,1024.11
2018-09-10T05:06:56.665Z,1024.15
2018-09-10T05:07:57.025Z,1024.13
2018-09-10T05:08:57.022Z,1024.12
2018-09-10T05:09:56.789Z,1024.12
2018-09-10T05:10:56.644Z,1024.15
2018-09-10T05:11:56.582Z,1024.1
2018-09-10T05:13:03.866Z,1024.12
2018-09-10T05:13:56.597Z,1024.14
2018-09-10T05:14:56.588Z,1024.17
2018-09-10T05:15:56.601Z,1024.08
2018-09-10T05:16:56.659Z,1024.19
2018-09-10T05:17:56.655Z,1024.22
2018-09-10T05:18:56.987Z,1024.24
2018-09-10T05:19:56.677Z,1024.29
2018-09-10T05:20:56.606Z,1024.25
2018-09-10T05:21:56.941Z,1024.32
2018-09-10T05:22:56.612Z,1024.29
2018-09-10T05:23:56.910Z,1024.31
2018-09-10T05:24:56.726Z,1024.36
2018-09-10T05:25:56.678Z,1024.41
2018-09-10T05:26:57.040Z,1024.41
2018-09-10T05:27:56.626Z,1024.44
2018-09-10T05:28:56.974Z,1024.39
2018-09-10T05:29:56.637Z,1024.35
2018-09-10T05:30:56.642Z,1024.36
2018-09-10T05:31:56.653Z,1024.34
2018-09-10T05:32:56.756Z,1024.39
2018-09-10T05:33:56.620Z,1024.4
2018-09-10T05:34:56.996Z,1024.35
2018-09-10T05:35:56.693Z,1024.33
2018-09-10T05:36:56.621Z,1024.44
2018-09-10T05:37:56.627Z,1024.45
2018-09-10T05:38:56.673Z,1024.53
2018-09-10T05:39:57.237Z,1024.59
2018-09-10T05:40:56.655Z,1024.63
2018-09-10T05:41:56.647Z,1024.67
2018-09-10T05:42:56.736Z,1024.68
2018-09-10T05:43:56.648Z,1024.65
2018-09-10T05:44:56.654Z,1024.72
2018-09-10T05:45:56.620Z,1024.71
2018-09-10T05:46:56.980Z,1024.71
2018-09-10T05:47:56.776Z,1024.71
2018-09-10T05:48:56.654Z,1024.7
2018-09-10T05:49:56.686Z,1024.75
2018-09-10T05:50:56.758Z,1024.7
2018-09-10T05:51:56.707Z,1024.66
2018-09-10T05:52:56.663Z,1024.72
2018-09-10T05:53:56.776Z,1024.68
2018-09-10T05:54:56.680Z,1024.69
2018-09-10T05:55:56.716Z,1024.73
2018-09-10T05:56:56.648Z,1024.73
2018-09-10T05:57:56.684Z,1024.74
2018-09-10T05:58:56.693Z,1024.75
2018-09-10T05:59:56.663Z,1024.78
2018-09-10T06:00:57.094Z,1024.81
2018-09-10T06:01:56.618Z,1024.79
2018-09-10T06:02:56.747Z,1024.81
2018-09-10T06:03:56.828Z,1024.91
2018-09-10T06:04:56.650Z,1024.87
2018-09-10T06:05:56.671Z,1024.95
2018-09-10T06:06:56.686Z,1024.98
2018-09-10T06:07:56.718Z,1025
2018-09-10T06:08:56.769Z,1025
2018-09-10T06:09:56.747Z,1025
2018-09-10T06:10:56.704Z,1025
2018-09-10T06:11:56.728Z,1024.98
2018-09-10T06:12:57.049Z,1024.97
2018-09-10T06:13:56.793Z,1024.97
2018-09-10T06:14:56.862Z,1024.95
2018-09-10T06:15:56.817Z,1024.96
2018-09-10T06:16:56.735Z,1024.95
2018-09-10T06:17:56.729Z,1024.99
2018-09-10T06:18:56.636Z,1025.01
2018-09-10T06:19:56.650Z,1025.01
2018-09-10T06:20:56.656Z,1025.04
2018-09-10T06:21:56.644Z,1024.97
2018-09-10T06:22:56.705Z,1024.96
2018-09-10T06:23:56.767Z,1024.98
2018-09-10T06:24:56.676Z,1024.96
2018-09-10T06:25:56.729Z,1024.96
2018-09-10T06:26:56.671Z,1024.96
2018-09-10T06:27:56.671Z,1024.9
2018-09-10T06:28:56.677Z,1024.91
2018-09-10T06:29:56.649Z,1024.88
2018-09-10T06:30:57.069Z,1024.85
2018-09-10T06:31:57.079Z,1024.87
2018-09-10T06:32:56.983Z,1024.88
2018-09-10T06:33:56.755Z,1024.9
2018-09-10T06:34:56.897Z,1024.89
2018-09-10T06:35:56.653Z,1024.88
2018-09-10T06:36:57.120Z,1024.9
2018-09-10T06:37:56.643Z,1024.91
2018-09-10T06:38:57.026Z,1024.92
2018-09-10T06:39:56.746Z,1024.93
2018-09-10T06:40:56.764Z,1024.88
2018-09-10T06:41:57.048Z,1024.89
2018-09-10T06:42:56.745Z,1024.88
2018-09-10T06:43:56.986Z,1024.9
2018-09-10T06:44:56.670Z,1024.89
2018-09-10T06:45:56.738Z,1024.94
2018-09-10T06:46:57.083Z,1024.93
2018-09-10T06:47:57.093Z,1024.89
2018-09-10T06:48:57.013Z,1024.89
2018-09-10T06:49:56.683Z,1024.92
2018-09-10T06:50:56.669Z,1024.87
2018-09-10T06:51:56.668Z,1024.91
2018-09-10T06:52:56.740Z,1024.88
2018-09-10T06:53:56.716Z,1024.86
2018-09-10T06:55:00.022Z,1024.83
2018-09-10T06:55:56.693Z,1024.89
2018-09-10T06:56:56.665Z,1024.87
2018-09-10T06:57:56.970Z,1024.88
2018-09-10T06:58:56.692Z,1024.87
2018-09-10T06:59:56.680Z,1024.95
2018-09-10T07:00:56.967Z,1024.95
2018-09-10T07:01:56.706Z,1024.96
2018-09-10T07:02:56.668Z,1025
2018-09-10T07:03:56.678Z,1024.96
2018-09-10T07:04:56.973Z,1024.95
2018-09-10T07:05:56.811Z,1024.96
2018-09-10T07:06:56.742Z,1024.93
2018-09-10T07:07:56.821Z,1024.9
2018-09-10T07:08:56.660Z,1024.91
2018-09-10T07:09:56.698Z,1024.92
2018-09-10T07:10:57.155Z,1024.92
2018-09-10T07:11:56.869Z,1024.93
2018-09-10T07:12:56.750Z,1024.95
2018-09-10T07:13:56.723Z,1024.88
2018-09-10T07:14:56.684Z,1024.93
2018-09-10T07:15:56.754Z,1024.94
2018-09-10T07:16:56.789Z,1024.93
2018-09-10T07:17:56.750Z,1024.93
2018-09-10T07:18:56.781Z,1024.94
2018-09-10T07:19:56.662Z,1024.92
2018-09-10T07:20:56.708Z,1024.97
2018-09-10T07:21:56.734Z,1024.91
2018-09-10T07:22:57.013Z,1024.89
2018-09-10T07:23:56.694Z,1024.93
2018-09-10T07:24:56.673Z,1024.91
2018-09-10T07:25:57.257Z,1024.97
2018-09-10T07:26:57.046Z,1024.99
2018-09-10T07:27:56.949Z,1024.98
2018-09-10T07:28:57.206Z,1024.92
2018-09-10T07:29:56.760Z,1024.93
2018-09-10T07:30:57.031Z,1024.95
2018-09-10T07:31:57.023Z,1024.9
2018-09-10T07:32:56.767Z,1024.92
2018-09-10T07:33:56.908Z,1024.92
2018-09-10T07:34:56.688Z,1024.89
2018-09-10T07:35:56.705Z,1024.9
2018-09-10T07:36:56.737Z,1024.94
2018-09-10T07:37:56.757Z,1024.91
2018-09-10T07:38:56.746Z,1024.9
2018-09-10T07:39:56.739Z,1024.89
2018-09-10T07:40:56.827Z,1024.91
2018-09-10T07:41:56.715Z,1024.92
2018-09-10T07:42:56.748Z,1024.92
2018-09-10T07:43:56.989Z,1024.97
2018-09-10T07:44:56.704Z,1024.99
2018-09-10T07:45:56.818Z,1024.98
2018-09-10T07:46:56.784Z,1024.97
2018-09-10T07:47:56.699Z,1024.95
2018-09-10T07:48:56.951Z,1025.02
2018-09-10T07:49:56.735Z,1024.98
2018-09-10T07:50:56.727Z,1025.01
2018-09-10T07:51:56.714Z,1025.02
2018-09-10T07:52:56.936Z,1025.08
2018-09-10T07:53:56.720Z,1025.06
2018-09-10T07:54:56.769Z,1025.08
2018-09-10T07:55:57.043Z,1025.05
2018-09-10T07:56:56.735Z,1025.08
2018-09-10T07:57:56.740Z,1025.08
2018-09-10T07:58:56.883Z,1025.05
2018-09-10T07:59:57.197Z,1025.07
2018-09-10T08:00:56.695Z,1025.07
2018-09-10T08:01:56.731Z,1025.08
2018-09-10T08:02:56.868Z,1025.06
2018-09-10T08:03:57.138Z,1025.06
2018-09-10T08:04:56.715Z,1025.03
2018-09-10T08:05:56.709Z,1025.05
2018-09-10T08:06:56.766Z,1025.04
2018-09-10T08:07:56.703Z,1025.03
2018-09-10T08:08:57.023Z,1024.99
2018-09-10T08:09:56.737Z,1024.98
2018-09-10T08:10:57.036Z,1024.99
2018-09-10T08:11:57.347Z,1024.97
2018-09-10T08:12:56.736Z,1024.92
2018-09-10T08:13:56.755Z,1024.96
2018-09-10T08:14:56.714Z,1024.91
2018-09-10T08:15:56.929Z,1024.92
2018-09-10T08:16:56.779Z,1024.95
2018-09-10T08:17:56.728Z,1024.93
2018-09-10T08:18:56.716Z,1024.98
2018-09-10T08:19:56.995Z,1024.97
2018-09-10T08:20:57.008Z,1025
2018-09-10T08:21:56.724Z,1024.99
2018-09-10T08:22:56.966Z,1025
2018-09-10T08:23:56.805Z,1025
2018-09-10T08:24:56.828Z,1025.02
2018-09-10T08:25:56.793Z,1025.06
2018-09-10T08:26:56.760Z,1025.02
2018-09-10T08:27:56.736Z,1025.03
2018-09-10T08:28:56.766Z,1025.06
2018-09-10T08:29:56.709Z,1025.06
2018-09-10T08:30:56.767Z,1025
2018-09-10T08:31:56.980Z,1025.05
2018-09-10T08:32:56.762Z,1025.05
2018-09-10T08:33:57.461Z,1024.98
2018-09-10T08:34:56.790Z,1024.96
2018-09-10T08:35:56.929Z,1024.98
2018-09-10T08:36:57.110Z,1024.97
2018-09-10T08:37:56.773Z,1024.97
2018-09-10T08:38:56.729Z,1024.96
2018-09-10T08:39:56.777Z,1024.94
2018-09-10T08:40:56.727Z,1024.97
2018-09-10T08:41:56.737Z,1024.98
2018-09-10T08:42:57.042Z,1024.95
2018-09-10T08:43:56.740Z,1024.95
2018-09-10T08:44:56.861Z,1024.91
2018-09-10T08:45:57.072Z,1024.92
2018-09-10T08:46:56.752Z,1024.92
2018-09-10T08:47:56.727Z,1024.89
2018-09-10T08:48:56.800Z,1024.9
2018-09-10T08:49:56.723Z,1024.92
2018-09-10T08:50:56.753Z,1024.88
2018-09-10T08:51:56.974Z,1024.91
2018-09-10T08:52:56.924Z,1024.9
2018-09-10T08:53:56.842Z,1024.86
2018-09-10T08:54:57.664Z,1024.86
2018-09-10T08:55:57.277Z,1024.84
2018-09-10T08:56:56.770Z,1024.89
2018-09-10T08:57:56.762Z,1024.84
2018-09-10T08:58:56.798Z,1024.89
2018-09-10T08:59:56.919Z,1024.85
2018-09-10T09:00:56.953Z,1024.87
2018-09-10T09:01:57.041Z,1024.84
2018-09-10T09:02:56.928Z,1024.84
2018-09-10T09:03:56.746Z,1024.78
2018-09-10T09:04:56.812Z,1024.8
2018-09-10T09:05:56.869Z,1024.78
2018-09-10T09:06:56.766Z,1024.79
2018-09-10T09:07:56.915Z,1024.76
2018-09-10T09:08:57.125Z,1024.79
2018-09-10T09:09:56.744Z,1024.8
2018-09-10T09:10:56.750Z,1024.76
2018-09-10T09:11:56.826Z,1024.77
2018-09-10T09:12:56.774Z,1024.79
2018-09-10T09:13:57.009Z,1024.77
2018-09-10T09:14:56.931Z,1024.76
2018-09-10T09:15:56.847Z,1024.74
2018-09-10T09:16:56.976Z,1024.72
2018-09-10T09:17:56.785Z,1024.71
2018-09-10T09:18:56.742Z,1024.72
2018-09-10T09:19:56.917Z,1024.72
2018-09-10T09:20:57.051Z,1024.72
2018-09-10T09:21:57.147Z,1024.71
2018-09-10T09:22:56.767Z,1024.78
2018-09-10T09:23:56.801Z,1024.78
2018-09-10T09:24:56.798Z,1024.8
2018-09-10T09:25:56.778Z,1024.86
2018-09-10T09:26:56.777Z,1024.83
2018-09-10T09:27:58.402Z,1024.85
2018-09-10T09:28:56.865Z,1024.85
2018-09-10T09:29:56.969Z,1024.86
2018-09-10T09:30:56.819Z,1024.84
2018-09-10T09:31:56.871Z,1024.84
2018-09-10T09:32:56.762Z,1024.85
2018-09-10T09:33:56.945Z,1024.85
2018-09-10T09:34:56.893Z,1024.81
2018-09-10T09:35:56.810Z,1024.84
2018-09-10T09:36:56.783Z,1024.8
2018-09-10T09:37:57.124Z,1024.8
2018-09-10T09:38:56.845Z,1024.81
2018-09-10T09:39:56.774Z,1024.77
2018-09-10T09:40:56.999Z,1024.76
2018-09-10T09:41:56.948Z,1024.8
2018-09-10T09:42:57.777Z,1024.72
2018-09-10T09:43:57.004Z,1024.74
2018-09-10T09:44:57.092Z,1024.72
2018-09-10T09:45:56.830Z,1024.79
2018-09-10T09:47:03.246Z,1024.71
2018-09-10T09:47:56.772Z,1024.76
2018-09-10T09:48:58.329Z,1024.75
2018-09-10T09:49:56.961Z,1024.74
2018-09-10T09:50:57.482Z,1024.72
2018-09-10T09:51:56.834Z,1024.7
2018-09-10T09:52:56.779Z,1024.69
2018-09-10T09:53:56.785Z,1024.64
2018-09-10T09:54:56.787Z,1024.64
2018-09-10T09:55:57.078Z,1024.58
2018-09-10T09:56:56.766Z,1024.59
2018-09-10T09:57:56.808Z,1024.58
2018-09-10T09:58:59.830Z,1024.62
2018-09-10T09:59:56.889Z,1024.63
2018-09-10T10:01:01.178Z,1024.59
2018-09-10T10:01:56.986Z,1024.58
2018-09-10T10:02:57.173Z,1024.58
2018-09-10T10:03:57.148Z,1024.57
2018-09-10T10:04:56.858Z,1024.56
2018-09-10T10:05:57.118Z,1024.55
2018-09-10T10:06:57.120Z,1024.52
2018-09-10T10:07:56.861Z,1024.52
2018-09-10T10:08:56.988Z,1024.5
2018-09-10T10:09:59.605Z,1024.44
2018-09-10T10:10:59.156Z,1024.45
2018-09-10T10:11:56.982Z,1024.44
2018-09-10T10:12:58.614Z,1024.44
2018-09-10T10:13:56.985Z,1024.39
2018-09-10T10:14:56.973Z,1024.41
2018-09-10T10:15:56.806Z,1024.4
2018-09-10T10:16:56.840Z,1024.38
2018-09-10T10:17:56.790Z,1024.36
2018-09-10T10:18:56.801Z,1024.37
2018-09-10T10:19:56.800Z,1024.43
2018-09-10T10:20:56.801Z,1024.39
2018-09-10T10:21:56.909Z,1024.4
2018-09-10T10:22:56.830Z,1024.37
2018-09-10T10:23:56.852Z,1024.32
2018-09-10T10:24:56.866Z,1024.4
2018-09-10T10:25:56.874Z,1024.43
2018-09-10T10:26:56.951Z,1024.38
2018-09-10T10:27:56.852Z,1024.37
2018-09-10T10:28:56.895Z,1024.37
2018-09-10T10:29:56.926Z,1024.41
2018-09-10T10:30:56.895Z,1024.37
2018-09-10T10:31:56.836Z,1024.35
2018-09-10T10:32:56.912Z,1024.29
2018-09-10T10:33:56.882Z,1024.34
2018-09-10T10:34:56.878Z,1024.34
2018-09-10T10:35:57.631Z,1024.24
2018-09-10T10:36:57.098Z,1024.2
2018-09-10T10:37:56.811Z,1024.25
2018-09-10T10:39:01.129Z,1024.21
2018-09-10T10:39:57.015Z,1024.21
2018-09-10T10:40:56.812Z,1024.25
2018-09-10T10:41:56.895Z,1024.23
2018-09-10T10:42:59.061Z,1024.19
2018-09-10T10:43:56.964Z,1024.19
2018-09-10T10:44:56.822Z,1024.15
2018-09-10T10:45:56.943Z,1024.16
2018-09-10T10:46:59.656Z,1024.17
2018-09-10T10:47:56.919Z,1024.13
2018-09-10T10:48:56.950Z,1024.15
2018-09-10T10:50:05.940Z,1024.14
2018-09-10T10:50:59.320Z,1024.16
2018-09-10T10:51:57.458Z,1024.1
2018-09-10T10:52:57.799Z,1024.13
2018-09-10T10:53:57.824Z,1024.1
2018-09-10T10:54:56.863Z,1024.09
2018-09-10T10:55:56.946Z,1024.08
2018-09-10T10:56:56.929Z,1024.06
2018-09-10T10:57:57.475Z,1024.08
2018-09-10T10:58:56.908Z,1024.01
2018-09-10T10:59:56.861Z,1024.04
2018-09-10T11:00:56.956Z,1023.97
2018-09-10T11:01:57.053Z,1023.96
2018-09-10T11:02:56.980Z,1023.98
2018-09-10T11:03:57.096Z,1024.06
2018-09-10T11:04:57.097Z,1024.03
2018-09-10T11:05:56.935Z,1024
2018-09-10T11:06:56.868Z,1024.02
2018-09-10T11:07:56.824Z,1024.02
2018-09-10T11:08:57.110Z,1024.04
2018-09-10T11:09:57.476Z,1024.11
2018-09-10T11:10:57.189Z,1024.11
2018-09-10T11:11:56.857Z,1024.05
2018-09-10T11:12:57.090Z,1024.05
2018-09-10T11:13:57.696Z,1024.01
2018-09-10T11:14:57.277Z,1024
2018-09-10T11:15:56.904Z,1023.99
2018-09-10T11:16:56.854Z,1023.98
2018-09-10T11:17:56.937Z,1024
2018-09-10T11:18:57.029Z,1023.98
2018-09-10T11:19:56.859Z,1023.94
2018-09-10T11:20:57.018Z,1023.96
2018-09-10T11:21:56.964Z,1023.96
2018-09-10T11:22:56.872Z,1023.93
2018-09-10T11:23:57.027Z,1023.88
2018-09-10T11:24:56.938Z,1023.88
2018-09-10T11:25:57.374Z,1023.85
2018-09-10T11:26:56.957Z,1023.9
2018-09-10T11:27:57.008Z,1023.84
2018-09-10T11:28:56.969Z,1023.86
2018-09-10T11:29:56.991Z,1023.91
2018-09-10T11:30:56.868Z,1023.92
2018-09-10T11:31:56.970Z,1023.91
2018-09-10T11:32:57.411Z,1023.84
2018-09-10T11:33:56.953Z,1023.85
2018-09-10T11:34:57.009Z,1023.82
2018-09-10T11:35:56.983Z,1023.8
2018-09-10T11:36:56.904Z,1023.84
2018-09-10T11:37:57.139Z,1023.8
2018-09-10T11:38:56.877Z,1023.81
2018-09-10T11:39:56.864Z,1023.85
2018-09-10T11:40:56.900Z,1023.84
2018-09-10T11:41:57.060Z,1023.86
2018-09-10T11:42:56.916Z,1023.86
2018-09-10T11:43:56.958Z,1023.83
2018-09-10T11:44:57.200Z,1023.86
2018-09-10T11:45:56.977Z,1023.83
2018-09-10T11:46:56.889Z,1023.8
2018-09-10T11:47:57.055Z,1023.84
2018-09-10T11:48:57.231Z,1023.79
2018-09-10T11:49:56.888Z,1023.75
2018-09-10T11:50:56.872Z,1023.71
2018-09-10T11:51:56.874Z,1023.71
2018-09-10T11:52:57.002Z,1023.7
2018-09-10T11:53:57.407Z,1023.68
2018-09-10T11:54:56.899Z,1023.68
2018-09-10T11:55:56.992Z,1023.7
2018-09-10T11:56:56.861Z,1023.68
2018-09-10T11:57:57.038Z,1023.74
2018-09-10T11:58:57.048Z,1023.69
2018-09-10T11:59:56.936Z,1023.65
2018-09-10T12:00:57.061Z,1023.65
2018-09-10T12:01:56.962Z,1023.68
2018-09-10T12:02:56.912Z,1023.66
2018-09-10T12:03:57.003Z,1023.66
2018-09-10T12:04:57.018Z,1023.67
2018-09-10T12:05:57.082Z,1023.68
2018-09-10T12:06:56.975Z,1023.67
2018-09-10T12:07:57.137Z,1023.63
2018-09-10T12:08:57.135Z,1023.58